sensor_id;sensor_type;location;lat;lon;timestamp;pressure;altitude;pressure_sealevel;temperature;humidity
48041;BME280;33815;48.386;11.738;2023-12-14T00:02:13;95368.59;;;4.11;100.00
48041;BME280;33815;48.386;11.738;2023-12-14T00:04:38;95373.47;;;4.14;100.00
48041;BME280;33815;48.386;11.738;2023-12-14T00:07:03;95379.56;;;4.13;100.00
48041;BME280;33815;48.386;11.738;2023-12-14T00:09:28;95383.09;;;4.12;100.00
48041;BME280;33815;48.386;11.738;2023-12-14T00:11:54;95387.72;;;4.08;100.00
48041;BME280;33815;48.386;11.738;2023-12-14T00:14:19;95390.44;;;4.07;100.00
48041;BME280;33815;48.386;11.738;2023-12-14T00:16:44;95385.81;;;4.10;100.00
48041;BME280;33815;48.386;11.738;2023-12-14T00:19:10;95386.09;;;4.07;100.00
48041;BME280;33815;48.386;11.738;2023-12-14T00:21:35;95388.53;;;4.09;100.00
48041;BME280;33815;48.386;11.738;2023-12-14T00:24:00;95395.47;;;4.08;100.00
48041;BME280;33815;48.386;11.738;2023-12-14T00:26:25;95394.50;;;4.09;100.00
48041;BME280;33815;48.386;11.738;2023-12-14T00:28:51;95399.78;;;4.08;100.00
48041;BME280;33815;48.386;11.738;2023-12-14T00:31:16;95396.53;;;4.06;100.00
48041;BME280;33815;48.386;11.738;2023-12-14T00:33:42;95400.63;;;4.08;100.00
48041;BME280;33815;48.386;11.738;2023-12-14T00:36:08;95406.84;;;4.06;100.00
48041;BME280;33815;48.386;11.738;2023-12-14T00:38:34;95409.13;;;4.19;100.00
48041;BME280;33815;48.386;11.738;2023-12-14T00:40:59;95412.53;;;4.09;100.00
48041;BME280;33815;48.386;11.738;2023-12-14T00:43:24;95406.84;;;4.06;100.00
48041;BME280;33815;48.386;11.738;2023-12-14T00:45:49;95417.84;;;4.08;100.00
48041;BME280;33815;48.386;11.738;2023-12-14T00:48:15;95420.84;;;4.03;100.00
48041;BME280;33815;48.386;11.738;2023-12-14T00:50:40;95431.28;;;4.02;100.00
48041;BME280;33815;48.386;11.738;2023-12-14T00:53:05;95430.59;;;4.00;100.00
48041;BME280;33815;48.386;11.738;2023-12-14T00:55:30;95440.91;;;4.00;100.00
48041;BME280;33815;48.386;11.738;2023-12-14T00:57:56;95444.19;;;4.02;100.00
48041;BME280;33815;48.386;11.738;2023-12-14T01:00:21;95445.81;;;4.03;100.00
48041;BME280;33815;48.386;11.738;2023-12-14T01:02:46;95454.78;;;3.99;100.00
48041;BME280;33815;48.386;11.738;2023-12-14T01:05:12;95455.16;;;4.04;100.00
48041;BME280;33815;48.386;11.738;2023-12-14T01:07:37;95465.63;;;4.02;100.00
48041;BME280;33815;48.386;11.738;2023-12-14T01:10:03;95461.81;;;3.97;100.00
48041;BME280;33815;48.386;11.738;2023-12-14T01:12:28;95461.44;;;3.91;100.00
48041;BME280;33815;48.386;11.738;2023-12-14T01:14:54;95469.69;;;3.95;100.00
48041;BME280;33815;48.386;11.738;2023-12-14T01:17:19;95474.19;;;3.93;100.00
48041;BME280;33815;48.386;11.738;2023-12-14T01:19:44;95475.13;;;3.92;100.00
48041;BME280;33815;48.386;11.738;2023-12-14T01:22:10;95479.34;;;3.93;100.00
48041;BME280;33815;48.386;11.738;2023-12-14T01:24:35;95479.19;;;3.94;100.00
48041;BME280;33815;48.386;11.738;2023-12-14T01:27:00;95484.34;;;3.94;100.00
48041;BME280;33815;48.386;11.738;2023-12-14T01:29:26;95489.50;;;3.94;100.00
48041;BME280;33815;48.386;11.738;2023-12-14T01:31:51;95489.78;;;3.91;100.00
48041;BME280;33815;48.386;11.738;2023-12-14T01:34:16;95490.88;;;3.89;100.00
48041;BME280;33815;48.386;11.738;2023-12-14T01:36:42;95497.09;;;3.86;100.00
48041;BME280;33815;48.386;11.738;2023-12-14T01:39:07;95496.41;;;3.84;100.00
48041;BME280;33815;48.386;11.738;2023-12-14T01:41:33;95499.25;;;3.81;100.00
48041;BME280;33815;48.386;11.738;2023-12-14T01:43:58;95501.19;;;3.79;100.00
48041;BME280;33815;48.386;11.738;2023-12-14T01:46:24;95502.25;;;3.76;100.00
48041;BME280;33815;48.386;11.738;2023-12-14T01:48:49;95498.03;;;3.75;100.00
48041;BME280;33815;48.386;11.738;2023-12-14T01:51:15;95511.22;;;3.82;100.00
48041;BME280;33815;48.386;11.738;2023-12-14T01:53:40;95516.38;;;3.82;100.00
48041;BME280;33815;48.386;11.738;2023-12-14T01:56:06;95521.53;;;3.82;100.00
48041;BME280;33815;48.386;11.738;2023-12-14T01:58:32;95526.69;;;3.82;100.00
48041;BME280;33815;48.386;11.738;2023-12-14T02:03:30;95533.47;;;3.83;100.00
48041;BME280;33815;48.386;11.738;2023-12-14T02:05:55;95540.22;;;3.84;100.00
48041;BME280;33815;48.386;11.738;2023-12-14T02:08:22;95542.00;;;3.84;100.00
48041;BME280;33815;48.386;11.738;2023-12-14T02:10:48;95546.22;;;3.85;100.00
48041;BME280;33815;48.386;11.738;2023-12-14T02:13:13;95547.03;;;3.85;100.00
48041;BME280;33815;48.386;11.738;2023-12-14T02:15:38;95546.88;;;3.87;100.00
48041;BME280;33815;48.386;11.738;2023-12-14T02:18:04;95548.38;;;3.89;100.00
48041;BME280;33815;48.386;11.738;2023-12-14T02:20:29;95556.38;;;3.86;100.00
48041;BME280;33815;48.386;11.738;2023-12-14T02:22:55;95550.81;;;3.81;100.00
48041;BME280;33815;48.386;11.738;2023-12-14T02:25:21;95548.50;;;3.78;100.00
48041;BME280;33815;48.386;11.738;2023-12-14T02:27:47;95547.56;;;3.69;100.00
48041;BME280;33815;48.386;11.738;2023-12-14T02:30:13;95555.16;;;3.71;100.00
48041;BME280;33815;48.386;11.738;2023-12-14T02:32:39;95558.66;;;3.70;100.00
48041;BME280;33815;48.386;11.738;2023-12-14T02:35:05;95571.69;;;3.68;100.00
48041;BME280;33815;48.386;11.738;2023-12-14T02:37:32;95568.94;;;3.60;100.00
48041;BME280;33815;48.386;11.738;2023-12-14T02:39:58;95574.66;;;3.64;100.00
48041;BME280;33815;48.386;11.738;2023-12-14T02:42:23;95570.16;;;3.56;100.00
48041;BME280;33815;48.386;11.738;2023-12-14T02:44:49;95572.19;;;3.52;100.00
48041;BME280;33815;48.386;11.738;2023-12-14T02:47:15;95567.25;;;3.39;100.00
48041;BME280;33815;48.386;11.738;2023-12-14T02:49:41;95572.97;;;3.43;100.00
48041;BME280;33815;48.386;11.738;2023-12-14T02:52:06;95578.13;;;3.43;100.00
48041;BME280;33815;48.386;11.738;2023-12-14T02:54:31;95585.59;;;3.46;100.00
48041;BME280;33815;48.386;11.738;2023-12-14T02:56:56;95578.13;;;3.43;100.00
48041;BME280;33815;48.386;11.738;2023-12-14T02:59:22;95588.28;;;3.45;100.00
48041;BME280;33815;48.386;11.738;2023-12-14T03:01:47;95592.25;;;3.49;100.00
48041;BME280;33815;48.386;11.738;2023-12-14T03:04:12;95602.84;;;3.55;100.00
48041;BME280;33815;48.386;11.738;2023-12-14T03:06:37;95600.13;;;3.57;100.00
48041;BME280;33815;48.386;11.738;2023-12-14T03:09:03;95617.25;;;3.68;100.00
48041;BME280;33815;48.386;11.738;2023-12-14T03:11:28;95611.84;;;3.71;100.00
48041;BME280;33815;48.386;11.738;2023-12-14T03:13:53;95617.25;;;3.68;100.00
48041;BME280;33815;48.386;11.738;2023-12-14T03:16:19;95622.16;;;3.71;100.00
48041;BME280;33815;48.386;11.738;2023-12-14T03:18:44;95622.97;;;3.71;100.00
48041;BME280;33815;48.386;11.738;2023-12-14T03:21:10;95620.78;;;3.67;100.00
48041;BME280;33815;48.386;11.738;2023-12-14T03:23:35;95632.47;;;3.71;100.00
48041;BME280;33815;48.386;11.738;2023-12-14T03:26:01;95629.06;;;3.70;100.00
48041;BME280;33815;48.386;11.738;2023-12-14T03:28:27;95633.25;;;3.71;100.00
48041;BME280;33815;48.386;11.738;2023-12-14T03:30:52;95634.22;;;3.70;100.00
48041;BME280;33815;48.386;11.738;2023-12-14T03:33:18;95640.06;;;3.72;100.00
48041;BME280;33815;48.386;11.738;2023-12-14T03:35:43;95645.63;;;3.68;100.00
48041;BME280;33815;48.386;11.738;2023-12-14T03:38:09;95642.06;;;3.69;100.00
48041;BME280;33815;48.386;11.738;2023-12-14T03:40:34;95645.34;;;3.71;100.00
48041;BME280;33815;48.386;11.738;2023-12-14T03:43:00;95644.94;;;3.75;100.00
48041;BME280;33815;48.386;11.738;2023-12-14T03:45:26;95659.47;;;3.76;100.00
48041;BME280;33815;48.386;11.738;2023-12-14T03:47:51;95659.91;;;3.82;100.00
48041;BME280;33815;48.386;11.738;2023-12-14T03:50:16;95656.31;;;3.73;100.00
48041;BME280;33815;48.386;11.738;2023-12-14T03:52:42;95675.88;;;3.75;100.00
48041;BME280;33815;48.386;11.738;2023-12-14T03:55:07;95669.06;;;3.74;100.00
48041;BME280;33815;48.386;11.738;2023-12-14T03:57:33;95668.97;;;3.76;100.00
48041;BME280;33815;48.386;11.738;2023-12-14T03:59:58;95666.78;;;3.71;100.00
48041;BME280;33815;48.386;11.738;2023-12-14T04:02:24;95676.00;;;3.74;100.00
48041;BME280;33815;48.386;11.738;2023-12-14T04:04:49;95681.88;;;3.76;100.00
48041;BME280;33815;48.386;11.738;2023-12-14T04:07:14;95679.38;;;3.74;100.00
48041;BME280;33815;48.386;11.738;2023-12-14T04:09:39;95692.56;;;3.81;100.00
48041;BME280;33815;48.386;11.738;2023-12-14T04:12:05;95692.97;;;3.76;100.00
48041;BME280;33815;48.386;11.738;2023-12-14T04:14:30;95694.84;;;3.74;100.00
48041;BME280;33815;48.386;11.738;2023-12-14T04:16:56;95699.97;;;3.65;100.00
48041;BME280;33815;48.386;11.738;2023-12-14T04:19:21;95722.66;;;3.71;100.00
48041;BME280;33815;48.386;11.738;2023-12-14T04:21:47;95721.72;;;3.72;100.00
48041;BME280;33815;48.386;11.738;2023-12-14T04:24:13;95728.25;;;3.76;100.00
48041;BME280;33815;48.386;11.738;2023-12-14T04:26:38;95731.63;;;3.76;100.00
48041;BME280;33815;48.386;11.738;2023-12-14T04:29:05;95736.91;;;3.75;100.00
48041;BME280;33815;48.386;11.738;2023-12-14T04:31:30;95732.72;;;3.74;100.00
48041;BME280;33815;48.386;11.738;2023-12-14T04:33:56;95730.84;;;3.76;100.00
48041;BME280;33815;48.386;11.738;2023-12-14T04:36:21;95748.59;;;3.79;100.00
48041;BME280;33815;48.386;11.738;2023-12-14T04:38:46;95748.75;;;3.77;100.00
48041;BME280;33815;48.386;11.738;2023-12-14T04:41:12;95744.53;;;3.76;100.00
48041;BME280;33815;48.386;11.738;2023-12-14T04:43:37;95752.84;;;3.90;100.00
48041;BME280;33815;48.386;11.738;2023-12-14T04:46:03;95755.28;;;3.82;100.00
48041;BME280;33815;48.386;11.738;2023-12-14T04:48:28;95756.22;;;3.81;100.00
48041;BME280;33815;48.386;11.738;2023-12-14T04:50:54;95759.19;;;3.76;100.00
48041;BME280;33815;48.386;11.738;2023-12-14T04:53:19;95752.38;;;3.75;100.00
48041;BME280;33815;48.386;11.738;2023-12-14T04:55:44;95772.06;;;3.76;100.00
48041;BME280;33815;48.386;11.738;2023-12-14T04:58:09;95771.38;;;3.74;100.00
48041;BME280;33815;48.386;11.738;2023-12-14T05:00:35;95768.91;;;3.72;100.00
48041;BME280;33815;48.386;11.738;2023-12-14T05:03:00;95773.69;;;3.77;100.00
48041;BME280;33815;48.386;11.738;2023-12-14T05:05:25;95781.69;;;3.74;100.00
48041;BME280;33815;48.386;11.738;2023-12-14T05:07:50;95790.47;;;3.71;100.00
48041;BME280;33815;48.386;11.738;2023-12-14T05:10:16;95788.03;;;3.70;100.00
48041;BME280;33815;48.386;11.738;2023-12-14T05:12:41;95788.03;;;3.70;100.00
48041;BME280;33815;48.386;11.738;2023-12-14T05:15:07;95806.31;;;3.67;100.00
48041;BME280;33815;48.386;11.738;2023-12-14T05:17:32;95804.25;;;3.60;100.00
48041;BME280;33815;48.386;11.738;2023-12-14T05:19:58;95805.88;;;3.62;100.00
48041;BME280;33815;48.386;11.738;2023-12-14T05:22:23;95812.47;;;3.54;100.00
48041;BME280;33815;48.386;11.738;2023-12-14T05:24:49;95817.38;;;3.57;100.00
48041;BME280;33815;48.386;11.738;2023-12-14T05:27:14;95823.38;;;3.58;100.00
48041;BME280;33815;48.386;11.738;2023-12-14T05:29:39;95821.97;;;3.54;100.00
48041;BME280;33815;48.386;11.738;2023-12-14T05:32:05;95825.75;;;3.50;100.00
48041;BME280;33815;48.386;11.738;2023-12-14T05:34:30;95829.75;;;3.42;100.00
48041;BME280;33815;48.386;11.738;2023-12-14T05:36:55;95843.00;;;3.38;100.00
48041;BME280;33815;48.386;11.738;2023-12-14T05:39:21;95832.06;;;3.24;100.00
48041;BME280;33815;48.386;11.738;2023-12-14T05:41:46;95850.22;;;3.23;100.00
48041;BME280;33815;48.386;11.738;2023-12-14T05:44:11;95856.16;;;3.23;100.00
48041;BME280;33815;48.386;11.738;2023-12-14T05:46:38;95856.75;;;3.27;100.00
48041;BME280;33815;48.386;11.738;2023-12-14T05:49:03;95857.31;;;3.31;100.00
48041;BME280;33815;48.386;11.738;2023-12-14T05:51:32;95853.81;;;3.32;100.00
48041;BME280;33815;48.386;11.738;2023-12-14T05:53:58;95864.78;;;3.34;100.00
48041;BME280;33815;48.386;11.738;2023-12-14T05:56:26;95869.13;;;3.33;100.00
48041;BME280;33815;48.386;11.738;2023-12-14T05:58:52;95875.22;;;3.32;100.00
48041;BME280;33815;48.386;11.738;2023-12-14T06:01:20;95871.72;;;3.33;100.00
48041;BME280;33815;48.386;11.738;2023-12-14T06:03:45;95878.94;;;3.39;100.00
48041;BME280;33815;48.386;11.738;2023-12-14T06:06:11;95879.31;;;3.35;100.00
48041;BME280;33815;48.386;11.738;2023-12-14T06:08:38;95896.16;;;3.39;100.00
48041;BME280;33815;48.386;11.738;2023-12-14T06:11:04;95894.63;;;3.36;100.00
48041;BME280;33815;48.386;11.738;2023-12-14T06:13:31;95904.81;;;3.38;100.00
48041;BME280;33815;48.386;11.738;2023-12-14T06:15:56;95906.59;;;3.37;100.00
48041;BME280;33815;48.386;11.738;2023-12-14T06:18:21;95908.47;;;3.35;100.00
48041;BME280;33815;48.386;11.738;2023-12-14T06:20:47;95921.34;;;3.35;100.00
48041;BME280;33815;48.386;11.738;2023-12-14T06:23:12;95920.41;;;3.36;100.00
48041;BME280;33815;48.386;11.738;2023-12-14T06:25:37;95924.75;;;3.36;100.00
48041;BME280;33815;48.386;11.738;2023-12-14T06:28:02;95931.66;;;3.35;100.00
48041;BME280;33815;48.386;11.738;2023-12-14T06:30:28;95924.25;;;3.42;100.00
48041;BME280;33815;48.386;11.738;2023-12-14T06:32:53;95934.25;;;3.35;100.00
48041;BME280;33815;48.386;11.738;2023-12-14T06:35:18;95937.63;;;3.36;100.00
48041;BME280;33815;48.386;11.738;2023-12-14T06:37:44;95940.06;;;3.37;100.00
48041;BME280;33815;48.386;11.738;2023-12-14T06:40:09;95945.47;;;3.34;100.00
48041;BME280;33815;48.386;11.738;2023-12-14T06:42:35;95942.78;;;3.36;100.00
48041;BME280;33815;48.386;11.738;2023-12-14T06:45:02;95947.94;;;3.36;100.00
48041;BME280;33815;48.386;11.738;2023-12-14T06:47:28;95957.63;;;3.32;100.00
48041;BME280;33815;48.386;11.738;2023-12-14T06:49:53;95960.94;;;3.34;100.00
48041;BME280;33815;48.386;11.738;2023-12-14T06:52:18;95964.19;;;3.36;100.00
48041;BME280;33815;48.386;11.738;2023-12-14T06:54:44;95968.53;;;3.36;100.00
48041;BME280;33815;48.386;11.738;2023-12-14T06:57:09;95971.56;;;3.41;100.00
48041;BME280;33815;48.386;11.738;2023-12-14T06:59:34;95979.66;;;3.36;100.00
48041;BME280;33815;48.386;11.738;2023-12-14T07:01:59;95977.31;;;3.33;100.00
48041;BME280;33815;48.386;11.738;2023-12-14T07:04:25;95985.75;;;3.35;100.00
48041;BME280;33815;48.386;11.738;2023-12-14T07:06:51;95996.06;;;3.35;100.00
48041;BME280;33815;48.386;11.738;2023-12-14T07:09:17;95999.91;;;3.41;100.00
48041;BME280;33815;48.386;11.738;2023-12-14T07:11:43;95999.66;;;3.44;100.00
48041;BME280;33815;48.386;11.738;2023-12-14T07:14:08;96000.00;;;3.39;100.00
48041;BME280;33815;48.386;11.738;2023-12-14T07:16:33;96010.66;;;3.46;100.00
48041;BME280;33815;48.386;11.738;2023-12-14T07:18:59;96012.44;;;3.46;100.00
48041;BME280;33815;48.386;11.738;2023-12-14T07:21:24;96016.78;;;3.45;100.00
48041;BME280;33815;48.386;11.738;2023-12-14T07:23:49;96024.50;;;3.45;100.00
48041;BME280;33815;48.386;11.738;2023-12-14T07:26:15;96026.94;;;3.47;100.00
48041;BME280;33815;48.386;11.738;2023-12-14T07:28:40;96028.44;;;3.49;100.00
48041;BME280;33815;48.386;11.738;2023-12-14T07:31:05;96035.59;;;3.46;100.00
48041;BME280;33815;48.386;11.738;2023-12-14T07:33:31;96031.50;;;3.43;100.00
48041;BME280;33815;48.386;11.738;2023-12-14T07:35:56;96035.50;;;3.47;100.00
48041;BME280;33815;48.386;11.738;2023-12-14T07:38:21;96041.22;;;3.39;100.00
48041;BME280;33815;48.386;11.738;2023-12-14T07:40:46;96041.22;;;3.39;100.00
48041;BME280;33815;48.386;11.738;2023-12-14T07:43:12;96052.13;;;3.43;100.00
48041;BME280;33815;48.386;11.738;2023-12-14T07:45:37;96052.91;;;3.55;100.00
48041;BME280;33815;48.386;11.738;2023-12-14T07:48:03;96043.72;;;3.41;100.00
48041;BME280;33815;48.386;11.738;2023-12-14T07:50:29;96061.13;;;3.49;100.00
48041;BME280;33815;48.386;11.738;2023-12-14T07:52:54;96062.78;;;3.50;100.00
48041;BME280;33815;48.386;11.738;2023-12-14T07:55:20;96062.41;;;3.54;100.00
48041;BME280;33815;48.386;11.738;2023-12-14T07:57:46;96070.72;;;3.58;100.00
48041;BME280;33815;48.386;11.738;2023-12-14T08:00:11;96074.72;;;3.62;100.00
48041;BME280;33815;48.386;11.738;2023-12-14T08:02:37;96072.69;;;3.66;100.00
48041;BME280;33815;48.386;11.738;2023-12-14T08:05:03;96080.31;;;3.67;100.00
48041;BME280;33815;48.386;11.738;2023-12-14T08:07:29;96084.41;;;3.70;100.00
48041;BME280;33815;48.386;11.738;2023-12-14T08:09:55;96078.53;;;3.79;100.00
48041;BME280;33815;48.386;11.738;2023-12-14T08:12:21;96086.84;;;3.71;100.00
48041;BME280;33815;48.386;11.738;2023-12-14T08:14:47;96079.63;;;3.65;100.00
48041;BME280;33815;48.386;11.738;2023-12-14T08:17:12;96086.06;;;3.71;100.00
48041;BME280;33815;48.386;11.738;2023-12-14T08:19:37;96085.81;;;3.74;100.00
48041;BME280;33815;48.386;11.738;2023-12-14T08:22:03;96101.16;;;3.75;100.00
48041;BME280;33815;48.386;11.738;2023-12-14T08:24:28;96103.72;;;3.75;100.00
48041;BME280;33815;48.386;11.738;2023-12-14T08:26:53;96114.63;;;3.79;100.00
48041;BME280;33815;48.386;11.738;2023-12-14T08:29:19;96116.38;;;3.78;100.00
48041;BME280;33815;48.386;11.738;2023-12-14T08:31:44;96129.84;;;3.93;100.00
48041;BME280;33815;48.386;11.738;2023-12-14T08:34:10;96134.06;;;3.94;100.00
48041;BME280;33815;48.386;11.738;2023-12-14T08:36:35;96130.44;;;3.86;100.00
48041;BME280;33815;48.386;11.738;2023-12-14T08:39:00;96147.28;;;3.90;100.00
48041;BME280;33815;48.386;11.738;2023-12-14T08:41:26;96141.56;;;3.86;100.00
48041;BME280;33815;48.386;11.738;2023-12-14T08:43:51;96152.34;;;3.91;100.00
48041;BME280;33815;48.386;11.738;2023-12-14T08:46:17;96165.94;;;3.93;100.00
48041;BME280;33815;48.386;11.738;2023-12-14T08:48:42;96171.09;;;3.93;100.00
48041;BME280;33815;48.386;11.738;2023-12-14T08:51:07;96167.56;;;4.06;100.00
48041;BME280;33815;48.386;11.738;2023-12-14T08:53:33;96159.09;;;4.04;100.00
48041;BME280;33815;48.386;11.738;2023-12-14T08:55:58;96160.63;;;4.06;100.00
48041;BME280;33815;48.386;11.738;2023-12-14T08:58:23;96173.53;;;4.06;100.00
48041;BME280;33815;48.386;11.738;2023-12-14T09:00:49;96182.28;;;4.15;100.00
48041;BME280;33815;48.386;11.738;2023-12-14T09:03:18;96185.38;;;4.09;100.00
48041;BME280;33815;48.386;11.738;2023-12-14T09:05:44;96185.84;;;4.14;100.00
48041;BME280;33815;48.386;11.738;2023-12-14T09:08:10;96173.19;;;4.00;100.00
48041;BME280;33815;48.386;11.738;2023-12-14T09:10:36;96189.34;;;4.13;100.00
48041;BME280;33815;48.386;11.738;2023-12-14T09:13:02;96189.78;;;4.29;100.00
48041;BME280;33815;48.386;11.738;2023-12-14T09:15:30;96196.09;;;4.37;100.00
48041;BME280;33815;48.386;11.738;2023-12-14T09:17:55;96203.78;;;4.59;100.00
48041;BME280;33815;48.386;11.738;2023-12-14T09:20:21;96207.59;;;4.76;100.00
48041;BME280;33815;48.386;11.738;2023-12-14T09:22:46;96209.78;;;4.81;100.00
48041;BME280;33815;48.386;11.738;2023-12-14T09:25:11;96213.81;;;4.74;100.00
48041;BME280;33815;48.386;11.738;2023-12-14T09:27:37;96210.38;;;4.85;100.00
48041;BME280;33815;48.386;11.738;2023-12-14T09:30:03;96214.97;;;4.81;100.00
48041;BME280;33815;48.386;11.738;2023-12-14T09:32:28;96213.63;;;4.87;100.00
48041;BME280;33815;48.386;11.738;2023-12-14T09:34:53;96216.97;;;4.77;100.00
48041;BME280;33815;48.386;11.738;2023-12-14T09:37:21;96216.03;;;4.78;100.00
48041;BME280;33815;48.386;11.738;2023-12-14T09:39:46;96215.88;;;4.91;100.00
48041;BME280;33815;48.386;11.738;2023-12-14T09:42:15;96233.63;;;4.85;100.00
48041;BME280;33815;48.386;11.738;2023-12-14T09:44:42;96227.84;;;4.92;100.00
48041;BME280;33815;48.386;11.738;2023-12-14T09:47:08;96228.56;;;4.83;100.00
48041;BME280;33815;48.386;11.738;2023-12-14T09:49:34;96230.34;;;4.83;100.00
48041;BME280;33815;48.386;11.738;2023-12-14T09:52:00;96233.53;;;4.75;100.00
48041;BME280;33815;48.386;11.738;2023-12-14T09:54:26;96240.38;;;4.65;100.00
48041;BME280;33815;48.386;11.738;2023-12-14T09:56:52;96237.22;;;4.61;100.00
48041;BME280;33815;48.386;11.738;2023-12-14T09:59:18;96237.34;;;4.59;100.00
48041;BME280;33815;48.386;11.738;2023-12-14T10:01:43;96247.16;;;4.66;100.00
48041;BME280;33815;48.386;11.738;2023-12-14T10:04:10;96249.16;;;4.73;100.00
48041;BME280;33815;48.386;11.738;2023-12-14T10:06:40;96258.50;;;4.86;100.00
48041;BME280;33815;48.386;11.738;2023-12-14T10:09:06;96257.19;;;4.91;100.00
48041;BME280;33815;48.386;11.738;2023-12-14T10:11:38;96251.28;;;5.01;100.00
48041;BME280;33815;48.386;11.738;2023-12-14T10:14:03;96256.09;;;5.05;100.00
48041;BME280;33815;48.386;11.738;2023-12-14T10:16:42;96254.56;;;5.03;100.00
48041;BME280;33815;48.386;11.738;2023-12-14T10:19:07;96246.34;;;4.97;100.00
48041;BME280;33815;48.386;11.738;2023-12-14T10:21:32;96253.75;;;5.02;100.00
48041;BME280;33815;48.386;11.738;2023-12-14T10:23:58;96251.97;;;5.03;100.00
48041;BME280;33815;48.386;11.738;2023-12-14T10:26:26;96242.38;;;4.93;100.00
48041;BME280;33815;48.386;11.738;2023-12-14T10:28:51;96257.88;;;4.93;100.00
48041;BME280;33815;48.386;11.738;2023-12-14T10:31:20;96254.47;;;4.93;100.00
48041;BME280;33815;48.386;11.738;2023-12-14T10:33:47;96264.13;;;5.12;100.00
48041;BME280;33815;48.386;11.738;2023-12-14T10:36:18;96266.28;;;5.07;100.00
48041;BME280;33815;48.386;11.738;2023-12-14T10:38:48;96274.13;;;5.17;100.00
48041;BME280;33815;48.386;11.738;2023-12-14T10:41:13;96264.59;;;5.38;100.00
48041;BME280;33815;48.386;11.738;2023-12-14T10:43:39;96275.91;;;5.58;100.00
48041;BME280;33815;48.386;11.738;2023-12-14T10:46:07;96275.63;;;5.82;100.00
48041;BME280;33815;48.386;11.738;2023-12-14T10:48:35;96276.72;;;5.80;100.00
48041;BME280;33815;48.386;11.738;2023-12-14T10:51:01;96269.41;;;5.85;100.00
48041;BME280;33815;48.386;11.738;2023-12-14T10:53:27;96278.66;;;6.09;100.00
48041;BME280;33815;48.386;11.738;2023-12-14T10:55:53;96283.00;;;6.08;100.00
48041;BME280;33815;48.386;11.738;2023-12-14T10:58:19;96282.69;;;6.02;100.00
48041;BME280;33815;48.386;11.738;2023-12-14T11:00:58;96280.84;;;5.92;100.00
48041;BME280;33815;48.386;11.738;2023-12-14T11:03:26;96289.81;;;5.88;100.00
48041;BME280;33815;48.386;11.738;2023-12-14T11:05:51;96297.78;;;5.75;100.00
48041;BME280;33815;48.386;11.738;2023-12-14T11:08:16;96294.31;;;5.65;100.00
48041;BME280;33815;48.386;11.738;2023-12-14T11:10:52;96298.78;;;5.63;100.00
48041;BME280;33815;48.386;11.738;2023-12-14T11:13:17;96297.97;;;5.62;100.00
48041;BME280;33815;48.386;11.738;2023-12-14T11:15:51;96293.03;;;5.59;100.00
48041;BME280;33815;48.386;11.738;2023-12-14T11:18:23;96303.91;;;5.53;100.00
48041;BME280;33815;48.386;11.738;2023-12-14T11:20:59;96301.25;;;5.43;100.00
48041;BME280;33815;48.386;11.738;2023-12-14T11:25:56;96314.50;;;5.71;100.00
48041;BME280;33815;48.386;11.738;2023-12-14T11:28:22;96313.84;;;5.79;100.00
48041;BME280;33815;48.386;11.738;2023-12-14T11:30:47;96316.88;;;5.84;100.00
48041;BME280;33815;48.386;11.738;2023-12-14T11:33:13;96323.31;;;5.90;100.00
48041;BME280;33815;48.386;11.738;2023-12-14T11:35:39;96329.13;;;6.03;100.00
48041;BME280;33815;48.386;11.738;2023-12-14T11:38:05;96326.09;;;6.19;100.00
48041;BME280;33815;48.386;11.738;2023-12-14T11:40:38;96322.66;;;6.09;100.00
48041;BME280;33815;48.386;11.738;2023-12-14T11:43:03;96333.50;;;6.03;100.00
48041;BME280;33815;48.386;11.738;2023-12-14T11:45:36;96333.50;;;6.03;100.00
48041;BME280;33815;48.386;11.738;2023-12-14T11:48:06;96328.50;;;6.11;100.00
48041;BME280;33815;48.386;11.738;2023-12-14T11:50:33;96334.94;;;6.16;100.00
48041;BME280;33815;48.386;11.738;2023-12-14T11:52:59;96333.38;;;6.04;100.00
48041;BME280;33815;48.386;11.738;2023-12-14T11:55:26;96338.84;;;5.90;100.00
48041;BME280;33815;48.386;11.738;2023-12-14T11:57:52;96338.97;;;5.88;100.00
48041;BME280;33815;48.386;11.738;2023-12-14T12:00:21;96336.13;;;5.70;100.00
48041;BME280;33815;48.386;11.738;2023-12-14T12:02:48;96350.84;;;5.70;100.00
48041;BME280;33815;48.386;11.738;2023-12-14T12:05:13;96342.09;;;5.92;100.00
48041;BME280;33815;48.386;11.738;2023-12-14T12:07:43;96348.31;;;5.79;100.00
48041;BME280;33815;48.386;11.738;2023-12-14T12:10:09;96349.56;;;5.85;100.00
48041;BME280;33815;48.386;11.738;2023-12-14T12:12:35;96348.94;;;5.93;100.00
48041;BME280;33815;48.386;11.738;2023-12-14T12:15:01;96355.19;;;6.11;100.00
48041;BME280;33815;48.386;11.738;2023-12-14T12:17:26;96361.06;;;6.13;100.00
48041;BME280;33815;48.386;11.738;2023-12-14T12:19:52;96359.69;;;6.09;100.00
48041;BME280;33815;48.386;11.738;2023-12-14T12:22:17;96363.66;;;6.13;100.00
48041;BME280;33815;48.386;11.738;2023-12-14T12:24:42;96358.88;;;6.09;100.00
48041;BME280;33815;48.386;11.738;2023-12-14T12:27:07;96357.59;;;6.03;100.00
48041;BME280;33815;48.386;11.738;2023-12-14T12:29:34;96365.91;;;5.86;100.00
48041;BME280;33815;48.386;11.738;2023-12-14T12:31:59;96366.41;;;5.79;100.00
48041;BME280;33815;48.386;11.738;2023-12-14T12:34:25;96363.06;;;5.68;100.00
48041;BME280;33815;48.386;11.738;2023-12-14T12:36:50;96365.22;;;5.51;100.00
48041;BME280;33815;48.386;11.738;2023-12-14T12:39:15;96352.88;;;5.55;100.00
48041;BME280;33815;48.386;11.738;2023-12-14T12:41:41;96358.97;;;5.32;100.00
48041;BME280;33815;48.386;11.738;2023-12-14T12:44:06;96361.53;;;5.32;100.00
48041;BME280;33815;48.386;11.738;2023-12-14T12:46:34;96362.94;;;5.37;100.00
48041;BME280;33815;48.386;11.738;2023-12-14T12:49:00;96364.09;;;5.44;100.00